sensor_id;sensor_type;location;lat;lon;timestamp;P1;durP1;ratioP1;P2;durP2;ratioP2
8819;SDS011;4446;50.876;4.736;2024-02-21T00:01:39;9.35;;;5.00;;
8819;SDS011;4446;50.876;4.736;2024-02-21T00:04:09;10.13;;;5.80;;
8819;SDS011;4446;50.876;4.736;2024-02-21T00:06:43;12.73;;;5.20;;
8819;SDS011;4446;50.876;4.736;2024-02-21T00:09:30;9.55;;;5.28;;
8819;SDS011;4446;50.876;4.736;2024-02-21T00:12:21;13.07;;;5.25;;
8819;SDS011;4446;50.876;4.736;2024-02-21T00:14:58;12.23;;;5.50;;
8819;SDS011;4446;50.876;4.736;2024-02-21T00:17:37;12.82;;;6.03;;
8819;SDS011;4446;50.876;4.736;2024-02-21T00:20:16;13.88;;;5.35;;
8819;SDS011;4446;50.876;4.736;2024-02-21T00:23:02;14.70;;;5.47;;
8819;SDS011;4446;50.876;4.736;2024-02-21T00:25:30;14.05;;;5.28;;
8819;SDS011;4446;50.876;4.736;2024-02-21T00:27:58;13.63;;;4.90;;
8819;SDS011;4446;50.876;4.736;2024-02-21T00:30:33;9.98;;;4.93;;
8819;SDS011;4446;50.876;4.736;2024-02-21T00:33:13;10.35;;;5.15;;
8819;SDS011;4446;50.876;4.736;2024-02-21T00:35:53;11.88;;;4.88;;
8819;SDS011;4446;50.876;4.736;2024-02-21T00:38:45;13.40;;;4.80;;
8819;SDS011;4446;50.876;4.736;2024-02-21T00:41:19;11.27;;;5.78;;
8819;SDS011;4446;50.876;4.736;2024-02-21T00:44:27;12.63;;;5.28;;
8819;SDS011;4446;50.876;4.736;2024-02-21T00:46:58;11.13;;;5.55;;
8819;SDS011;4446;50.876;4.736;2024-02-21T00:49:47;10.45;;;4.72;;
8819;SDS011;4446;50.876;4.736;2024-02-21T00:52:44;7.43;;;4.95;;
8819;SDS011;4446;50.876;4.736;2024-02-21T00:55:20;11.65;;;4.70;;
8819;SDS011;4446;50.876;4.736;2024-02-21T00:57:57;9.98;;;4.30;;
8819;SDS011;4446;50.876;4.736;2024-02-21T01:00:39;8.55;;;4.40;;
8819;SDS011;4446;50.876;4.736;2024-02-21T01:05:55;8.98;;;4.57;;
8819;SDS011;4446;50.876;4.736;2024-02-21T01:14:13;14.82;;;4.85;;
8819;SDS011;4446;50.876;4.736;2024-02-21T01:16:56;9.32;;;4.90;;
8819;SDS011;4446;50.876;4.736;2024-02-21T01:19:28;10.93;;;4.53;;
8819;SDS011;4446;50.876;4.736;2024-02-21T01:22:05;9.75;;;4.28;;
8819;SDS011;4446;50.876;4.736;2024-02-21T01:24:40;10.85;;;4.82;;
8819;SDS011;4446;50.876;4.736;2024-02-21T01:27:27;10.10;;;5.22;;
8819;SDS011;4446;50.876;4.736;2024-02-21T01:30:14;10.75;;;4.97;;
8819;SDS011;4446;50.876;4.736;2024-02-21T01:32:56;10.32;;;4.18;;
8819;SDS011;4446;50.876;4.736;2024-02-21T01:35:35;7.18;;;4.35;;
8819;SDS011;4446;50.876;4.736;2024-02-21T01:38:24;9.75;;;4.28;;
8819;SDS011;4446;50.876;4.736;2024-02-21T01:41:07;9.52;;;4.30;;
8819;SDS011;4446;50.876;4.736;2024-02-21T01:44:00;9.32;;;4.13;;
8819;SDS011;4446;50.876;4.736;2024-02-21T01:46:45;6.10;;;3.88;;
8819;SDS011;4446;50.876;4.736;2024-02-21T01:49:16;11.95;;;4.50;;
8819;SDS011;4446;50.876;4.736;2024-02-21T01:51:49;7.30;;;4.10;;
8819;SDS011;4446;50.876;4.736;2024-02-21T01:54:25;7.47;;;3.85;;
8819;SDS011;4446;50.876;4.736;2024-02-21T01:57:14;8.65;;;3.92;;
8819;SDS011;4446;50.876;4.736;2024-02-21T01:59:55;8.27;;;4.13;;
8819;SDS011;4446;50.876;4.736;2024-02-21T02:02:38;7.93;;;3.90;;
8819;SDS011;4446;50.876;4.736;2024-02-21T02:05:22;10.48;;;4.28;;
8819;SDS011;4446;50.876;4.736;2024-02-21T02:07:59;8.45;;;4.03;;
8819;SDS011;4446;50.876;4.736;2024-02-21T02:10:32;12.30;;;4.38;;
8819;SDS011;4446;50.876;4.736;2024-02-21T02:13:21;9.25;;;4.03;;
8819;SDS011;4446;50.876;4.736;2024-02-21T02:16:00;8.15;;;4.15;;
8819;SDS011;4446;50.876;4.736;2024-02-21T02:18:37;9.90;;;4.43;;
8819;SDS011;4446;50.876;4.736;2024-02-21T02:21:08;7.50;;;4.25;;
8819;SDS011;4446;50.876;4.736;2024-02-21T02:27:14;7.65;;;4.15;;
8819;SDS011;4446;50.876;4.736;2024-02-21T02:29:59;10.20;;;4.57;;
8819;SDS011;4446;50.876;4.736;2024-02-21T02:33:04;7.78;;;3.95;;
8819;SDS011;4446;50.876;4.736;2024-02-21T02:35:38;10.50;;;4.72;;
8819;SDS011;4446;50.876;4.736;2024-02-21T02:38:20;9.52;;;4.60;;
8819;SDS011;4446;50.876;4.736;2024-02-21T02:43:43;9.93;;;4.72;;
8819;SDS011;4446;50.876;4.736;2024-02-21T02:46:24;8.57;;;3.70;;
8819;SDS011;4446;50.876;4.736;2024-02-21T02:48:56;10.18;;;4.55;;
8819;SDS011;4446;50.876;4.736;2024-02-21T02:51:28;10.45;;;4.18;;
8819;SDS011;4446;50.876;4.736;2024-02-21T02:54:03;6.20;;;3.80;;
8819;SDS011;4446;50.876;4.736;2024-02-21T02:56:57;8.95;;;4.25;;
8819;SDS011;4446;50.876;4.736;2024-02-21T02:59:33;9.43;;;3.65;;
8819;SDS011;4446;50.876;4.736;2024-02-21T03:02:03;6.60;;;3.60;;
8819;SDS011;4446;50.876;4.736;2024-02-21T03:04:31;9.25;;;4.30;;
8819;SDS011;4446;50.876;4.736;2024-02-21T03:07:02;9.13;;;3.90;;
8819;SDS011;4446;50.876;4.736;2024-02-21T03:09:35;10.23;;;3.92;;
8819;SDS011;4446;50.876;4.736;2024-02-21T03:12:18;11.18;;;4.38;;
8819;SDS011;4446;50.876;4.736;2024-02-21T03:14:55;10.32;;;4.07;;
8819;SDS011;4446;50.876;4.736;2024-02-21T03:17:40;8.88;;;3.72;;
8819;SDS011;4446;50.876;4.736;2024-02-21T03:20:13;6.65;;;4.03;;
8819;SDS011;4446;50.876;4.736;2024-02-21T03:23:02;6.93;;;3.13;;
8819;SDS011;4446;50.876;4.736;2024-02-21T03:25:38;7.13;;;3.58;;
8819;SDS011;4446;50.876;4.736;2024-02-21T03:28:18;6.10;;;3.70;;
8819;SDS011;4446;50.876;4.736;2024-02-21T03:30:57;9.02;;;4.18;;
8819;SDS011;4446;50.876;4.736;2024-02-21T03:33:43;6.80;;;3.75;;
8819;SDS011;4446;50.876;4.736;2024-02-21T03:36:34;8.68;;;3.88;;
8819;SDS011;4446;50.876;4.736;2024-02-21T03:39:07;10.30;;;4.40;;
8819;SDS011;4446;50.876;4.736;2024-02-21T03:44:49;10.40;;;4.18;;
8819;SDS011;4446;50.876;4.736;2024-02-21T03:47:32;12.60;;;4.50;;
8819;SDS011;4446;50.876;4.736;2024-02-21T03:50:10;11.93;;;4.18;;
8819;SDS011;4446;50.876;4.736;2024-02-21T03:52:51;7.93;;;3.83;;
8819;SDS011;4446;50.876;4.736;2024-02-21T03:55:35;7.97;;;3.40;;
8819;SDS011;4446;50.876;4.736;2024-02-21T03:58:06;7.80;;;3.80;;
8819;SDS011;4446;50.876;4.736;2024-02-21T04:00:49;5.70;;;3.42;;
8819;SDS011;4446;50.876;4.736;2024-02-21T04:03:22;8.80;;;4.30;;
8819;SDS011;4446;50.876;4.736;2024-02-21T04:06:15;11.88;;;4.05;;
8819;SDS011;4446;50.876;4.736;2024-02-21T04:08:53;5.82;;;3.67;;
8819;SDS011;4446;50.876;4.736;2024-02-21T04:11:35;8.05;;;4.50;;
8819;SDS011;4446;50.876;4.736;2024-02-21T04:14:06;7.68;;;4.07;;
8819;SDS011;4446;50.876;4.736;2024-02-21T04:16:48;9.27;;;4.93;;
8819;SDS011;4446;50.876;4.736;2024-02-21T04:19:26;11.60;;;4.07;;
8819;SDS011;4446;50.876;4.736;2024-02-21T04:21:58;9.55;;;4.18;;
8819;SDS011;4446;50.876;4.736;2024-02-21T04:25:12;6.55;;;3.72;;
8819;SDS011;4446;50.876;4.736;2024-02-21T04:31:16;11.18;;;3.88;;
8819;SDS011;4446;50.876;4.736;2024-02-21T04:33:56;7.15;;;3.60;;
8819;SDS011;4446;50.876;4.736;2024-02-21T04:36:35;8.27;;;4.10;;
8819;SDS011;4446;50.876;4.736;2024-02-21T04:39:23;8.25;;;4.20;;
8819;SDS011;4446;50.876;4.736;2024-02-21T04:42:06;8.27;;;3.67;;
8819;SDS011;4446;50.876;4.736;2024-02-21T04:44:40;8.45;;;3.60;;
8819;SDS011;4446;50.876;4.736;2024-02-21T04:47:24;12.00;;;4.28;;
8819;SDS011;4446;50.876;4.736;2024-02-21T04:50:18;8.70;;;4.28;;
8819;SDS011;4446;50.876;4.736;2024-02-21T04:52:50;8.85;;;4.20;;
8819;SDS011;4446;50.876;4.736;2024-02-21T04:55:25;8.40;;;4.15;;
8819;SDS011;4446;50.876;4.736;2024-02-21T04:58:12;7.03;;;3.90;;
8819;SDS011;4446;50.876;4.736;2024-02-21T05:00:56;9.95;;;4.40;;
8819;SDS011;4446;50.876;4.736;2024-02-21T05:03:34;8.70;;;3.65;;
8819;SDS011;4446;50.876;4.736;2024-02-21T05:06:05;8.90;;;4.20;;
8819;SDS011;4446;50.876;4.736;2024-02-21T05:08:36;10.23;;;4.00;;
8819;SDS011;4446;50.876;4.736;2024-02-21T05:11:07;7.47;;;3.83;;
8819;SDS011;4446;50.876;4.736;2024-02-21T05:13:41;9.55;;;4.28;;
8819;SDS011;4446;50.876;4.736;2024-02-21T05:16:19;6.57;;;3.63;;
8819;SDS011;4446;50.876;4.736;2024-02-21T23:23:13;1.48;;;1.38;;
8819;SDS011;4446;50.876;4.736;2024-02-21T23:25:40;2.17;;;1.90;;
8819;SDS011;4446;50.876;4.736;2024-02-21T23:28:08;2.13;;;1.92;;
8819;SDS011;4446;50.876;4.736;2024-02-21T23:30:35;2.45;;;1.90;;
8819;SDS011;4446;50.876;4.736;2024-02-21T23:33:02;2.03;;;1.63;;
8819;SDS011;4446;50.876;4.736;2024-02-21T23:35:29;2.15;;;1.63;;
8819;SDS011;4446;50.876;4.736;2024-02-21T23:37:56;1.85;;;1.73;;
8819;SDS011;4446;50.876;4.736;2024-02-21T23:40:25;1.85;;;1.67;;
8819;SDS011;4446;50.876;4.736;2024-02-21T23:42:51;2.33;;;1.98;;
8819;SDS011;4446;50.876;4.736;2024-02-21T23:45:18;2.22;;;1.90;;
8819;SDS011;4446;50.876;4.736;2024-02-21T23:47:45;2.45;;;1.80;;
8819;SDS011;4446;50.876;4.736;2024-02-21T23:50:12;2.00;;;1.80;;
8819;SDS011;4446;50.876;4.736;2024-02-21T23:52:39;2.55;;;2.20;;
8819;SDS011;4446;50.876;4.736;2024-02-21T23:55:06;2.10;;;1.90;;
8819;SDS011;4446;50.876;4.736;2024-02-21T23:57:35;2.50;;;1.95;;
